Time;durP1;ratioP1;P1;durP2;ratioP2;P2;SDS_P1;SDS_P2;PMS_P1;PMS_P2;Temp;Humidity;BMP_temperature;BMP_pressure;BME280_temperature;BME280_humidity;BME280_pressure;Samples;Min_cycle;Max_cycle;Signal;HPM_P1;HPM_P2
2021/10/29 00:01:13;;;;;;;12.70;6.60;;;;;;;16.29;73.64;97710.13;4971482;28;20484;-70
2021/10/29 00:03:39;;;;;;;15.82;7.20;;;;;;;16.33;73.34;97717.25;4981721;28;20088;-69
2021/10/29 00:06:05;;;;;;;12.38;6.85;;;;;;;16.35;73.20;97706.84;4974944;28;20048;-70
2021/10/29 00:08:31;;;;;;;15.43;7.15;;;;;;;16.49;72.78;97714.75;4976762;28;20038;-70
2021/10/29 00:10:57;;;;;;;10.82;6.85;;;;;;;16.60;72.34;97717.84;4974864;28;20038;-70
2021/10/29 00:13:23;;;;;;;15.43;6.60;;;;;;;16.48;72.79;97715.06;4973279;28;20045;-71
2021/10/29 00:15:49;;;;;;;14.95;6.68;;;;;;;16.67;72.26;97714.63;4980830;28;20026;-70
2021/10/29 00:18:15;;;;;;;8.05;4.82;;;;;;;16.43;73.18;97704.41;4981998;28;20081;-71
2021/10/29 00:20:40;;;;;;;13.02;6.15;;;;;;;16.75;72.11;97699.34;4982720;28;20125;-71
2021/10/29 00:23:06;;;;;;;10.25;5.70;;;;;;;16.75;71.92;97691.19;4978457;28;20034;-71
2021/10/29 00:25:32;;;;;;;11.90;6.18;;;;;;;16.67;72.21;97679.28;4982661;28;20030;-70
2021/10/29 00:27:58;;;;;;;14.43;6.25;;;;;;;16.48;72.83;97668.88;4972672;28;20046;-70
2021/10/29 00:30:23;;;;;;;16.67;6.55;;;;;;;16.43;73.12;97669.09;4977689;28;20374;-71
2021/10/29 00:32:49;;;;;;;12.07;6.80;;;;;;;16.61;72.55;97675.97;4982405;28;20034;-71
2021/10/29 00:35:15;;;;;;;14.07;7.25;;;;;;;16.68;72.14;97686.31;4984000;28;20117;-71
2021/10/29 00:37:41;;;;;;;9.95;6.22;;;;;;;16.76;72.09;97674.56;4985709;28;20026;-71
2021/10/29 00:40:12;;;;;;;10.07;6.50;;;;;;;16.79;71.80;97681.25;4977706;28;20066;-71
2021/10/29 00:42:39;;;;;;;12.95;6.93;;;;;;;16.91;71.29;97675.88;4974788;28;20031;-70
2021/10/29 00:45:06;;;;;;;13.50;6.93;;;;;;;16.64;72.29;97680.72;4981431;28;20052;-70
2021/10/29 00:47:32;;;;;;;14.13;6.78;;;;;;;16.87;71.66;97668.69;4981647;28;20037;-70
2021/10/29 00:49:58;;;;;;;13.85;6.65;;;;;;;17.08;70.69;97665.97;4976905;28;20027;-71
2021/10/29 00:52:24;;;;;;;11.43;6.47;;;;;;;16.89;71.16;97661.81;4986471;28;20101;-71
2021/10/29 00:54:50;;;;;;;13.35;6.53;;;;;;;17.08;70.56;97655.09;4977501;28;20085;-70
2021/10/29 00:57:16;;;;;;;11.55;6.72;;;;;;;17.13;70.32;97652.16;4981666;28;20473;-69
2021/10/29 00:59:42;;;;;;;15.18;6.95;;;;;;;17.16;70.49;97650.66;4974713;28;20469;-70
2021/10/29 01:02:08;;;;;;;17.73;6.55;;;;;;;16.96;71.16;97648.47;4980859;28;20508;-69
2021/10/29 01:04:33;;;;;;;12.02;6.63;;;;;;;16.94;71.07;97642.56;4976125;28;20030;-70
2021/10/29 01:07:00;;;;;;;9.20;6.05;;;;;;;16.96;71.27;97651.19;4979250;28;20030;-70
2021/10/29 01:09:25;;;;;;;12.27;6.20;;;;;;;16.88;71.29;97646.63;4975031;28;20366;-70
2021/10/29 01:11:52;;;;;;;11.75;5.97;;;;;;;16.87;71.58;97646.94;4955096;28;20039;-70
2021/10/29 01:14:17;;;;;;;9.43;6.15;;;;;;;16.90;71.52;97649.81;4979346;28;20035;-70
2021/10/29 01:16:43;;;;;;;11.02;6.32;;;;;;;16.84;71.88;97648.44;4976609;28;20070;-69
2021/10/29 01:19:10;;;;;;;8.82;5.53;;;;;;;16.82;71.93;97645.25;4981861;28;20054;-70
2021/10/29 01:21:36;;;;;;;30.70;5.78;;;;;;;16.82;72.10;97627.00;4977543;28;20047;-71
2021/10/29 01:24:02;;;;;;;12.85;6.15;;;;;;;16.65;73.15;97627.97;4977685;28;20496;-74
2021/10/29 01:26:28;;;;;;;15.02;6.30;;;;;;;16.72;72.91;97626.63;4980955;28;20044;-74
2021/10/29 01:28:55;;;;;;;12.52;6.32;;;;;;;16.65;73.25;97617.09;4983005;28;20110;-72
2021/10/29 01:31:21;;;;;;;11.32;6.18;;;;;;;16.74;73.04;97625.16;4978874;28;20039;-73
2021/10/29 01:33:47;;;;;;;11.82;6.03;;;;;;;16.78;73.00;97625.28;4962170;28;20039;-73
2021/10/29 01:36:13;;;;;;;11.13;5.90;;;;;;;16.33;74.59;97633.03;4962275;28;20045;-73
2021/10/29 01:38:41;;;;;;;13.95;6.43;;;;;;;16.32;75.42;97617.09;4974309;28;20039;-71
2021/10/29 01:41:08;;;;;;;26.67;6.32;;;;;;;16.44;74.27;97603.56;4975534;28;20091;-71
2021/10/29 01:43:44;;;;;;;18.77;5.60;;;;;;;16.37;76.16;97603.31;4960024;28;20049;-72
2021/10/29 01:46:11;;;;;;;15.50;5.78;;;;;;;16.36;75.87;97594.34;4974345;28;20114;-72
2021/10/29 01:48:49;;;;;;;10.88;5.45;;;;;;;16.29;75.49;97588.66;4981228;28;20039;-73
2021/10/29 01:51:14;;;;;;;14.75;5.70;;;;;;;16.47;75.65;97577.63;4976449;28;20105;-73
2021/10/29 01:53:41;;;;;;;11.30;5.97;;;;;;;16.48;74.92;97574.59;4978108;28;20706;-73
2021/10/29 01:56:07;;;;;;;7.95;5.07;;;;;;;16.68;73.83;97580.31;4976125;28;20476;-74
2021/10/29 01:58:33;;;;;;;10.60;5.25;;;;;;;16.67;73.89;97584.94;4977402;28;20090;-74
2021/10/29 02:00:59;;;;;;;14.55;6.63;;;;;;;16.50;74.48;97574.25;4981404;28;20395;-73
2021/10/29 02:03:25;;;;;;;10.10;5.53;;;;;;;16.56;74.22;97572.13;4967464;28;20349;-73
2021/10/29 02:05:51;;;;;;;12.30;6.03;;;;;;;16.66;73.87;97563.53;4983493;28;20026;-72
2021/10/29 02:08:22;;;;;;;12.85;5.65;;;;;;;16.62;73.97;97552.53;4978599;28;20065;-74
2021/10/29 02:10:49;;;;;;;11.27;5.78;;;;;;;16.56;74.10;97550.38;4980176;28;20041;-73
2021/10/29 02:13:15;;;;;;;9.43;5.43;;;;;;;16.51;74.27;97548.66;4986395;28;20069;-73
2021/10/29 02:15:41;;;;;;;12.25;6.55;;;;;;;16.26;75.51;97540.44;4978693;28;20054;-73
2021/10/29 02:18:07;;;;;;;12.93;7.10;;;;;;;16.53;74.20;97543.69;4978487;28;20488;-73
2021/10/29 02:20:32;;;;;;;11.95;6.30;;;;;;;16.52;74.12;97547.53;4977348;28;20125;-73
2021/10/29 02:22:58;;;;;;;12.98;6.80;;;;;;;16.46;74.29;97540.72;4981058;28;20110;-73
2021/10/29 02:25:24;;;;;;;10.70;7.40;;;;;;;16.40;74.41;97532.00;4978443;28;20488;-73
2021/10/29 02:27:50;;;;;;;10.73;8.25;;;;;;;16.48;74.37;97527.59;4979443;28;20658;-73
2021/10/29 02:30:16;;;;;;;13.93;8.57;;;;;;;16.48;74.16;97533.84;4985145;28;20121;-73
2021/10/29 02:32:42;;;;;;;10.75;6.80;;;;;;;16.52;73.91;97520.34;4984904;28;20065;-72
2021/10/29 02:35:07;;;;;;;7.45;6.15;;;;;;;16.50;74.22;97534.28;4971034;28;20484;-72
2021/10/29 02:37:33;;;;;;;11.27;5.95;;;;;;;16.53;73.75;97525.47;4982079;28;20374;-72
2021/10/29 02:40:00;;;;;;;7.55;4.70;;;;;;;16.48;73.97;97519.44;4977641;28;20027;-73
2021/10/29 02:42:26;;;;;;;13.02;6.10;;;;;;;16.41;75.09;97511.88;4974815;28;20105;-70
2021/10/29 02:44:51;;;;;;;11.43;4.78;;;;;;;16.27;75.31;97520.31;4976721;28;20031;-71
2021/10/29 02:47:17;;;;;;;11.40;4.13;;;;;;;16.31;75.29;97512.28;4980804;28;20042;-72
2021/10/29 02:49:43;;;;;;;25.63;3.70;;;;;;;16.31;75.19;97526.66;4974953;28;20034;-72
2021/10/29 02:52:09;;;;;;;5.82;3.50;;;;;;;16.17;75.61;97513.38;4982097;28;20054;-72
2021/10/29 02:54:34;;;;;;;7.28;3.40;;;;;;;16.14;75.92;97511.34;4975408;28;20046;-72
2021/10/29 02:57:00;;;;;;;7.50;4.03;;;;;;;15.94;76.62;97516.47;4980668;28;20033;-72
2021/10/29 02:59:25;;;;;;;11.27;5.10;;;;;;;15.95;77.13;97509.91;4976979;28;20485;-72
2021/10/29 03:01:51;;;;;;;16.60;5.97;;;;;;;15.90;77.79;97512.81;4975828;28;20037;-72
2021/10/29 03:04:17;;;;;;;8.88;5.93;;;;;;;16.07;76.95;97500.22;4976282;28;20436;-73
2021/10/29 03:06:43;;;;;;;13.23;6.25;;;;;;;16.24;76.89;97507.38;4977542;28;20485;-74
2021/10/29 03:09:09;;;;;;;13.77;6.20;;;;;;;16.23;77.19;97495.75;4981094;28;20034;-73
2021/10/29 03:11:34;;;;;;;11.80;5.82;;;;;;;16.21;77.18;97486.34;4975561;28;20172;-74
2021/10/29 03:14:00;;;;;;;13.20;6.10;;;;;;;16.33;76.59;97458.41;4985134;28;20092;-74
2021/10/29 03:16:25;;;;;;;16.17;5.80;;;;;;;16.42;76.26;97452.88;4974780;28;20026;-71
2021/10/29 03:18:51;;;;;;;14.10;5.32;;;;;;;16.27;76.82;97470.63;4975113;28;20035;-72
2021/10/29 03:21:17;;;;;;;9.77;4.38;;;;;;;16.40;76.35;97461.38;4979841;28;20089;-72
2021/10/29 03:23:43;;;;;;;12.65;4.53;;;;;;;16.28;76.75;97461.34;4975849;28;20125;-71
2021/10/29 03:26:10;;;;;;;11.27;3.75;;;;;;;16.27;76.75;97460.53;4976367;28;20372;-72
2021/10/29 03:28:35;;;;;;;9.48;3.30;;;;;;;16.13;76.79;97433.72;4973057;28;20053;-72
2021/10/29 03:31:01;;;;;;;6.05;2.70;;;;;;;16.32;76.05;97446.75;4981378;28;20038;-74
2021/10/29 03:33:28;;;;;;;6.82;2.50;;;;;;;15.99;76.59;97453.00;4985217;28;20129;-74
2021/10/29 03:35:54;;;;;;;9.90;2.30;;;;;;;15.95;77.19;97450.19;4966081;28;20377;-74
2021/10/29 03:41:08;;;;;;;;;;;;;;;15.99;76.70;97422.38;4969182;28;20041;-74
2021/10/29 03:43:39;;;;;;;5.00;1.88;;;;;;;16.02;76.33;97424.41;4969089;28;19932;-73
2021/10/29 03:46:12;;;;;;;7.25;2.00;;;;;;;16.01;76.07;97414.69;4977271;28;20113;-74
2021/10/29 03:53:44;;;;;;;7.57;1.88;;;;;;;16.09;75.99;97398.28;4982212;28;20038;-75
2021/10/29 03:56:18;;;;;;;5.97;1.80;;;;;;;15.97;76.36;97386.63;4971596;28;20041;-74
2021/10/29 03:58:46;;;;;;;6.22;1.98;;;;;;;15.98;76.24;97378.13;4977929;28;20030;-72
2021/10/29 04:01:12;;;;;;;6.68;2.25;;;;;;;15.93;76.75;97368.28;4979340;28;20492;-73
2021/10/29 04:03:37;;;;;;;6.40;2.50;;;;;;;15.83;77.08;97370.59;4982797;28;20049;-74
2021/10/29 04:06:04;;;;;;;9.63;2.95;;;;;;;15.84;76.91;97359.41;4983344;28;20038;-73
2021/10/29 04:08:30;;;;;;;8.07;3.50;;;;;;;15.62;77.91;97357.88;4974871;28;20504;-73
2021/10/29 04:10:57;;;;;;;10.23;3.60;;;;;;;15.45;78.31;97356.94;4978085;28;20066;-74
2021/10/29 04:13:22;;;;;;;9.70;3.90;;;;;;;15.72;77.58;97360.16;4979114;28;20101;-73
2021/10/29 04:15:48;;;;;;;9.93;4.28;;;;;;;15.57;78.48;97353.44;4974887;28;20485;-73
2021/10/29 04:18:14;;;;;;;11.45;3.97;;;;;;;15.62;78.19;97344.31;4983709;28;20034;-73
2021/10/29 04:20:39;;;;;;;11.98;4.28;;;;;;;15.76;77.69;97336.66;4975178;28;20547;-72
2021/10/29 04:23:06;;;;;;;15.75;4.40;;;;;;;15.67;78.01;97338.69;4977455;28;20480;-72
2021/10/29 04:25:32;;;;;;;11.80;4.82;;;;;;;15.65;78.28;97338.22;4969125;28;20440;-72
2021/10/29 04:28:00;;;;;;;12.38;4.68;;;;;;;15.72;77.95;97330.31;4977610;28;20057;-73
2021/10/29 04:30:29;;;;;;;18.05;5.32;;;;;;;15.63;77.46;97324.19;4983458;28;20384;-71
2021/10/29 04:32:57;;;;;;;14.68;4.63;;;;;;;15.84;77.23;97331.47;4979103;28;20031;-70
2021/10/29 04:35:23;;;;;;;11.65;5.55;;;;;;;15.66;77.89;97320.81;4970092;28;20117;-71
2021/10/29 04:37:49;;;;;;;15.85;5.53;;;;;;;15.89;77.09;97315.00;4974041;28;20089;-70
2021/10/29 04:40:14;;;;;;;15.10;5.50;;;;;;;15.91;76.69;97326.31;4990761;28;20073;-70
2021/10/29 04:42:41;;;;;;;17.83;5.63;;;;;;;15.67;77.65;97316.97;4968678;28;20507;-70
2021/10/29 04:45:08;;;;;;;14.95;5.95;;;;;;;15.84;77.05;97315.19;4976833;28;20034;-70
2021/10/29 04:47:34;;;;;;;16.77;5.63;;;;;;;15.68;77.09;97306.91;4977613;28;20480;-71
2021/10/29 04:50:01;;;;;;;19.25;5.80;;;;;;;15.72;77.25;97302.38;4973240;28;20030;-70
2021/10/29 04:52:27;;;;;;;15.80;5.32;;;;;;;15.48;78.16;97301.19;4973456;28;20521;-71
2021/10/29 04:54:53;;;;;;;18.05;6.05;;;;;;;15.55;77.52;97293.31;4976185;28;20042;-71
2021/10/29 04:57:18;;;;;;;12.43;5.30;;;;;;;15.54;77.66;97293.66;4978486;28;20366;-72
2021/10/29 04:59:44;;;;;;;15.88;6.05;;;;;;;15.51;77.73;97290.50;4973042;28;20042;-70
2021/10/29 05:02:09;;;;;;;21.20;5.90;;;;;;;15.57;77.58;97285.63;4978391;28;20089;-71
2021/10/29 05:04:35;;;;;;;10.98;5.75;;;;;;;15.56;77.53;97284.03;4980329;28;20035;-72
2021/10/29 05:07:01;;;;;;;16.30;6.00;;;;;;;15.49;77.89;97276.47;4970934;28;20073;-72
2021/10/29 05:09:27;;;;;;;12.85;5.43;;;;;;;15.48;78.03;97280.31;4978508;28;20034;-72
2021/10/29 05:11:53;;;;;;;19.38;6.88;;;;;;;15.46;77.71;97274.44;4976035;28;20048;-71
2021/10/29 05:14:18;;;;;;;12.60;5.93;;;;;;;15.44;78.13;97270.44;4982318;28;20117;-71
2021/10/29 05:16:44;;;;;;;17.88;5.57;;;;;;;15.30;78.06;97262.63;4972696;28;20114;-72
2021/10/29 05:19:10;;;;;;;16.30;5.05;;;;;;;15.36;78.01;97262.06;4983129;28;20026;-72
2021/10/29 05:21:36;;;;;;;13.60;4.70;;;;;;;15.24;78.02;97263.97;4978166;28;20399;-72
2021/10/29 05:24:01;;;;;;;10.93;5.05;;;;;;;15.29;78.36;97259.13;4976307;28;20034;-72
2021/10/29 05:26:27;;;;;;;14.80;5.18;;;;;;;15.17;78.05;97262.59;4981568;28;20035;-72
2021/10/29 05:28:52;;;;;;;12.52;5.00;;;;;;;15.24;77.86;97251.19;4978090;28;20042;-71
2021/10/29 05:31:18;;;;;;;12.13;5.00;;;;;;;14.85;79.25;97256.03;4978563;28;20043;-72
2021/10/29 05:33:43;;;;;;;14.32;5.30;;;;;;;15.12;78.03;97251.16;4975852;28;20121;-71
2021/10/29 05:36:11;;;;;;;12.63;4.78;;;;;;;15.27;77.87;97247.03;4980388;28;20041;-73
2021/10/29 05:38:36;;;;;;;11.27;5.00;;;;;;;15.12;77.78;97241.13;4985855;28;20042;-71
2021/10/29 05:41:02;;;;;;;10.40;5.03;;;;;;;15.13;77.80;97231.84;4980341;28;20097;-72
2021/10/29 05:43:30;;;;;;;9.05;4.45;;;;;;;15.11;78.01;97225.97;4980477;28;20040;-72
2021/10/29 05:45:55;;;;;;;17.02;4.50;;;;;;;14.89;77.76;97229.84;4983382;28;20022;-71
2021/10/29 05:48:21;;;;;;;11.30;3.90;;;;;;;15.07;77.82;97228.56;4978658;28;20030;-71
2021/10/29 05:50:49;;;;;;;13.23;4.53;;;;;;;14.98;78.12;97238.69;4977234;28;20048;-71
2021/10/29 05:54:08;;;;;;;15.38;3.83;;;;;;;14.95;78.47;97222.28;4975151;28;20128;-71
2021/10/29 05:56:05;;;;;;;14.23;4.28;;;;;;;14.85;78.53;97228.91;4967596;28;20132;-71
2021/10/29 05:58:34;;;;;;;11.23;4.50;;;;;;;14.89;78.52;97225.19;4972986;28;20074;-71
2021/10/29 06:01:01;;;;;;;8.85;4.15;;;;;;;14.89;78.28;97227.13;4976065;28;20030;-71
2021/10/29 06:03:27;;;;;;;9.98;4.57;;;;;;;14.83;78.21;97223.03;4974304;28;20072;-70
2021/10/29 06:05:53;;;;;;;11.25;4.93;;;;;;;14.69;78.87;97221.38;4976994;28;20122;-71
2021/10/29 06:08:19;;;;;;;11.20;4.78;;;;;;;14.88;78.19;97210.06;4972286;28;20080;-70
2021/10/29 06:10:45;;;;;;;10.63;4.90;;;;;;;14.85;78.05;97216.16;4978957;28;20035;-69
2021/10/29 06:13:10;;;;;;;12.32;5.45;;;;;;;14.70;78.39;97214.88;4979157;28;20026;-71
2021/10/29 06:15:41;;;;;;;11.45;5.65;;;;;;;14.68;78.40;97205.44;4974850;28;20728;-70
2021/10/29 06:18:06;;;;;;;14.45;5.65;;;;;;;14.62;78.95;97200.22;4976144;28;20027;-67
2021/10/29 06:20:33;;;;;;;15.45;5.60;;;;;;;14.73;78.72;97192.53;4980217;28;20053;-68
2021/10/29 06:22:59;;;;;;;16.30;5.72;;;;;;;14.77;78.37;97190.75;4976783;28;20108;-68
2021/10/29 06:25:27;;;;;;;13.98;6.45;;;;;;;14.99;77.41;97186.06;4981429;28;20503;-68
2021/10/29 06:30:44;;;;;;;11.95;6.00;;;;;;;14.85;77.63;97186.34;4970966;28;20042;-68
2021/10/29 06:33:12;;;;;;;15.65;6.25;;;;;;;14.87;76.98;97178.66;4979721;28;20489;-68
2021/10/29 06:35:42;;;;;;;13.32;6.15;;;;;;;14.75;77.20;97184.06;4974691;28;20405;-68
2021/10/29 06:38:09;;;;;;;12.75;5.55;;;;;;;14.68;77.62;97189.19;4973610;28;20085;-68
2021/10/29 06:40:45;;;;;;;15.15;6.07;;;;;;;14.92;76.96;97178.47;4979790;28;20496;-70
2021/10/29 06:43:20;;;;;;;11.20;5.95;;;;;;;14.79;77.13;97174.13;4975288;28;20041;-67
2021/10/29 06:46:05;;;;;;;18.08;6.50;;;;;;;14.77;77.21;97171.78;4978143;28;20114;-67
2021/10/29 06:59:24;;;;;;;17.02;6.07;;;;;;;14.59;77.36;97176.50;4981768;28;20022;-68
2021/10/29 07:04:34;;;;;;;12.18;5.38;;;;;;;14.76;76.64;97164.75;4977236;28;20173;-68
2021/10/29 07:40:08;;;;;;;;;;;;;;;14.33;77.08;97168.63;4954205;28;20055;-68
2021/10/29 07:42:56;;;;;;;14.88;5.75;;;;;;;14.72;76.07;97161.13;4953347;28;19926;-68
2021/10/29 07:45:23;;;;;;;12.32;5.18;;;;;;;14.72;76.12;97157.63;4964587;28;20030;-69
2021/10/29 07:47:51;;;;;;;13.70;5.00;;;;;;;14.69;75.70;97160.97;4945409;28;20089;-69
2021/10/29 07:50:18;;;;;;;15.23;4.85;;;;;;;14.54;76.41;97155.06;4968455;28;20054;-68
2021/10/29 07:52:46;;;;;;;15.10;5.60;;;;;;;14.97;75.50;97147.66;4972955;28;20783;-67
2021/10/29 07:55:15;;;;;;;16.42;4.93;;;;;;;14.93;75.18;97152.94;4979290;28;20134;-69
2021/10/29 07:57:42;;;;;;;10.93;4.97;;;;;;;14.87;75.14;97146.16;4970302;28;20038;-68
2021/10/29 08:00:10;;;;;;;12.27;5.07;;;;;;;14.83;75.15;97145.25;4971476;28;20117;-67
2021/10/29 08:02:36;;;;;;;13.88;4.90;;;;;;;14.90;75.19;97155.56;4969687;28;20092;-68
2021/10/29 08:05:02;;;;;;;17.30;5.13;;;;;;;14.97;75.11;97147.66;4970566;28;20034;-68
2021/10/29 08:07:29;;;;;;;14.32;4.80;;;;;;;14.88;75.23;97152.38;4977786;28;20042;-67
2021/10/29 08:09:55;;;;;;;13.27;4.50;;;;;;;14.93;74.55;97146.75;4975010;28;20467;-67
2021/10/29 08:12:22;;;;;;;19.35;5.00;;;;;;;14.99;74.85;97152.72;4969094;28;20049;-67
2021/10/29 08:14:51;;;;;;;15.35;5.18;;;;;;;14.87;75.17;97142.66;4976601;28;20034;-68
2021/10/29 08:17:18;;;;;;;16.73;5.13;;;;;;;15.04;74.61;97144.41;4978863;28;20064;-67
2021/10/29 08:19:46;;;;;;;13.15;5.32;;;;;;;15.10;74.27;97145.78;4973699;28;20054;-67
2021/10/29 08:22:13;;;;;;;9.45;4.55;;;;;;;15.14;73.87;97146.69;4961652;28;20039;-67
2021/10/29 08:24:40;;;;;;;19.00;5.30;;;;;;;15.13;73.95;97139.69;4976952;28;20108;-68
2021/10/29 08:27:07;;;;;;;15.70;4.95;;;;;;;15.14;74.08;97143.16;4957307;28;20042;-67
2021/10/29 08:29:34;;;;;;;17.10;4.90;;;;;;;15.27;73.80;97141.28;4971779;28;20042;-67
2021/10/29 08:32:00;;;;;;;19.48;5.03;;;;;;;15.06;74.48;97134.03;4986337;28;20389;-67
2021/10/29 08:34:26;;;;;;;19.73;4.95;;;;;;;15.22;73.97;97126.81;4960695;28;20034;-67
2021/10/29 08:36:57;;;;;;;19.80;4.90;;;;;;;15.10;73.83;97117.88;4966194;28;20042;-66
2021/10/29 08:39:28;;;;;;;21.27;5.10;;;;;;;15.09;74.12;97122.50;4979493;28;20058;-67
2021/10/29 08:41:58;;;;;;;20.88;5.45;;;;;;;15.24;73.96;97104.78;4968640;28;20114;-67
2021/10/29 08:44:24;;;;;;;21.48;5.82;;;;;;;15.23;74.41;97097.78;4961512;28;20070;-67
2021/10/29 08:46:49;;;;;;;36.30;7.00;;;;;;;15.14;75.28;97116.06;4973089;28;20030;-67
2021/10/29 08:49:15;;;;;;;41.88;6.50;;;;;;;15.21;75.35;97108.97;4978594;28;20069;-67
2021/10/29 08:51:42;;;;;;;28.20;6.20;;;;;;;15.27;75.38;97119.59;4650990;28;9999754;-67
2021/10/29 08:54:08;;;;;;;27.65;6.30;;;;;;;15.07;75.69;97101.16;4960070;28;20129;-70
2021/10/29 08:56:34;;;;;;;20.05;6.28;;;;;;;15.27;75.14;97100.59;4973383;28;20049;-68
2021/10/29 08:59:07;;;;;;;16.63;6.07;;;;;;;15.45;74.36;97101.97;4965774;28;20801;-69
2021/10/29 09:32:36;;;;;;;8.98;3.47;;;;;;;15.72;72.18;97061.69;4979785;28;20038;-68
2021/10/29 09:35:12;;;;;;;6.18;2.70;;;;;;;15.66;72.69;97047.56;4982095;28;20034;-68
2021/10/29 09:38:00;;;;;;;7.40;2.80;;;;;;;15.58;72.84;97051.19;4978918;28;20031;-69
2021/10/29 09:40:28;;;;;;;10.85;3.17;;;;;;;15.82;72.25;97041.41;4980019;28;20039;-68
2021/10/29 09:43:00;;;;;;;8.43;2.35;;;;;;;15.65;72.32;97037.06;4974966;28;20042;-69
2021/10/29 09:45:28;;;;;;;11.18;2.80;;;;;;;15.93;72.05;97045.28;4979304;28;20034;-68
2021/10/29 09:48:10;;;;;;;8.18;2.67;;;;;;;15.84;71.57;97028.28;4975623;28;20488;-69
2021/10/29 09:50:46;;;;;;;4.60;1.98;;;;;;;16.39;69.98;97034.09;4973200;28;20038;-67
2021/10/29 09:53:22;;;;;;;13.30;2.47;;;;;;;15.91;70.06;97019.59;4972481;28;20038;-68
2021/10/29 09:55:55;;;;;;;5.85;2.15;;;;;;;16.01;69.92;97029.19;4969970;28;20045;-68
2021/10/29 09:58:22;;;;;;;8.80;2.10;;;;;;;16.17;69.60;97027.31;4971712;28;20548;-68
2021/10/29 10:00:49;;;;;;;10.45;2.40;;;;;;;16.07;69.24;97012.28;4976798;28;20035;-69
2021/10/29 10:03:20;;;;;;;5.82;1.60;;;;;;;16.14;69.07;97009.00;4967850;28;20038;-68
2021/10/29 10:05:46;;;;;;;8.65;1.85;;;;;;;16.16;68.61;97014.88;4639099;28;10000212;-68
2021/10/29 10:08:16;;;;;;;5.22;1.58;;;;;;;16.15;67.48;96991.56;4952170;28;20121;-68
2021/10/29 10:10:46;;;;;;;6.32;1.58;;;;;;;16.16;67.81;96992.34;4968978;28;20133;-69
2021/10/29 10:13:15;;;;;;;7.70;1.60;;;;;;;16.12;67.24;96999.59;4975474;28;20061;-68
2021/10/29 10:15:41;;;;;;;6.90;1.77;;;;;;;16.44;66.47;97002.38;4986169;28;20489;-68
2021/10/29 10:18:07;;;;;;;11.43;2.05;;;;;;;16.52;67.06;97004.94;4981310;28;20026;-69
2021/10/29 10:20:33;;;;;;;9.02;1.40;;;;;;;16.74;66.31;97004.69;4959933;28;20041;-68
2021/10/29 10:23:04;;;;;;;7.07;1.50;;;;;;;16.81;65.59;97007.59;4992096;28;20392;-68
2021/10/29 10:25:40;;;;;;;13.25;1.55;;;;;;;16.63;66.11;96994.34;4955682;28;20065;-68
2021/10/29 10:30:41;;;;;;;10.63;1.83;;;;;;;16.54;66.73;97012.72;4974348;28;20041;-68
2021/10/29 10:47:08;;;;;;;8.43;1.55;;;;;;;15.99;70.67;96947.31;4912976;29;20055;-68
2021/10/29 10:49:52;;;;;;;9.93;1.63;;;;;;;15.42;71.34;96934.50;4911978;29;20550;-68
2021/10/29 10:52:28;;;;;;;5.18;1.20;;;;;;;15.79;69.73;96937.06;4913551;29;20145;-68
2021/10/29 10:55:29;;;;;;;4.90;1.50;;;;;;;15.89;70.34;96935.78;4926622;29;20152;-68
2021/10/29 10:58:07;;;;;;;3.65;1.30;;;;;;;16.17;69.86;96943.13;4918026;29;20055;-67
2021/10/29 11:00:44;;;;;;;10.13;1.60;;;;;;;16.00;70.43;96941.53;4910009;29;20058;-67
2021/10/29 11:03:40;;;;;;;6.85;1.10;;;;;;;15.85;70.70;96942.25;4912981;29;20078;-68
2021/10/29 11:06:26;;;;;;;7.32;1.52;;;;;;;16.01;68.49;96943.09;4905406;29;20386;-67
2021/10/29 11:11:53;;;;;;;5.68;0.90;;;;;;;16.24;66.74;96958.81;4918945;29;20044;-68
2021/10/29 11:14:34;;;;;;;11.90;1.60;;;;;;;15.93;66.60;96954.91;4918506;28;20059;-67
2021/10/29 11:17:01;;;;;;;3.80;0.80;;;;;;;16.15;66.01;96959.00;4982153;28;20034;-67
2021/10/29 11:19:35;;;;;;;4.82;1.05;;;;;;;16.25;66.04;96954.97;4975592;28;20022;-67
2021/10/29 11:22:00;;;;;;;;;;;;;;;16.10;65.43;96948.38;4986323;28;20030;-68
2021/10/29 11:24:32;;;;;;;4.68;0.70;;;;;;;15.98;65.88;96960.09;4966074;28;20273;-69
2021/10/29 11:27:04;;;;;;;4.65;0.55;;;;;;;16.15;65.43;96961.72;4983104;28;20476;-68
2021/10/29 11:29:30;;;;;;;3.47;0.50;;;;;;;16.12;65.33;96964.31;4978796;28;20371;-68
2021/10/29 11:31:58;;;;;;;3.50;0.60;;;;;;;15.98;64.88;96968.22;4979277;28;21325;-67
2021/10/29 11:34:23;;;;;;;4.78;0.50;;;;;;;16.15;65.01;96974.47;4983652;28;20067;-67
2021/10/29 11:36:52;;;;;;;0.85;0.52;;;;;;;16.02;64.87;96979.19;4974415;28;20078;-68
2021/10/29 11:39:21;;;;;;;1.58;0.38;;;;;;;16.24;64.54;96992.22;4981079;28;20033;-68
2021/10/29 11:41:50;;;;;;;1.27;0.40;;;;;;;16.16;63.95;96986.91;4978673;28;20045;-68
2021/10/29 11:44:22;;;;;;;1.02;0.20;;;;;;;15.94;63.33;96997.19;4971979;28;20385;-68
2021/10/29 11:46:49;;;;;;;0.65;0.20;;;;;;;16.08;63.80;97022.03;4971960;28;20041;-68
2021/10/29 11:49:17;;;;;;;0.73;0.30;;;;;;;16.20;62.90;97029.34;4978685;28;20035;-67
2021/10/29 11:52:04;;;;;;;1.67;0.20;;;;;;;15.99;63.98;97031.47;4987039;28;20460;-67
2021/10/29 11:54:44;;;;;;;2.40;0.40;;;;;;;16.10;63.49;97041.47;4983097;28;20051;-67
2021/10/29 12:08:25;;;;;;;5.35;0.40;;;;;;;15.95;63.47;97061.22;4909004;29;20132;-68
2021/10/29 12:11:01;;;;;;;0.63;0.20;;;;;;;14.47;65.36;97092.50;4914759;29;20195;-67
2021/10/29 12:13:28;;;;;;;0.47;0.10;;;;;;;13.82;66.63;97103.72;4900740;29;20040;-64
2021/10/29 12:15:55;;;;;;;5.07;0.75;;;;;;;13.38;67.45;97120.16;4916334;29;20039;-66
2021/10/29 12:18:27;;;;;;;1.75;0.13;;;;;;;13.19;69.38;97107.81;4910430;29;20053;-66
2021/10/29 12:20:53;;;;;;;1.33;0.35;;;;;;;12.99;69.65;97112.84;4909167;29;20533;-65
2021/10/29 12:23:24;;;;;;;2.42;0.35;;;;;;;13.21;69.94;97110.19;4911142;29;20119;-65
2021/10/29 12:28:55;;;;;;;3.33;0.40;;;;;;;13.39;70.52;97127.94;4915798;29;20036;-66
2021/10/29 12:34:13;;;;;;;5.93;0.82;;;;;;;13.94;69.33;97147.06;4907951;29;20039;-67
2021/10/29 12:51:57;;;;;;;4.55;1.42;;;;;;;13.44;71.12;97186.47;4977670;28;20038;-67
2021/10/29 13:01:25;;;;;;;2.70;0.90;;;;;;;14.04;66.96;97210.81;4977775;28;20129;-67
2021/10/29 13:02:03;;;;;;;11.85;1.10;;;;;;;13.91;66.29;97218.84;4979548;28;20699;-67
2021/10/29 13:04:45;;;;;;;6.63;1.00;;;;;;;14.27;65.12;97224.88;4981645;28;20117;-67
2021/10/29 13:07:12;;;;;;;5.40;0.73;;;;;;;14.02;65.73;97232.00;4974929;28;20467;-66
2021/10/29 13:09:39;;;;;;;3.80;0.80;;;;;;;13.98;66.15;97244.59;4976091;28;20052;-67
2021/10/29 13:17:01;;;;;;;1.98;0.60;;;;;;;13.78;65.45;97275.91;4977799;28;20627;-67
2021/10/29 13:55:17;;;;;;;2.67;0.55;;;;;;;14.49;63.59;97305.00;4874707;29;20067;-67
2021/10/29 14:30:05;;;;;;;1.30;0.47;;;;;;;13.78;62.88;97327.31;4874750;29;20044;-68
2021/10/29 14:32:41;;;;;;;1.65;0.32;;;;;;;14.13;62.56;97335.28;4951436;28;20069;-68
2021/10/29 14:35:15;;;;;;;1.55;0.35;;;;;;;14.38;61.37;97338.19;4974219;28;20042;-68
2021/10/29 14:40:37;;;;;;;1.75;0.38;;;;;;;14.46;61.29;97351.72;4951532;28;19921;-65
2021/10/29 14:45:49;;;;;;;4.15;0.90;;;;;;;14.27;61.85;97354.81;4964623;28;20035;-66
2021/10/29 15:48:56;;;;;;;2.33;0.75;;;;;;;14.25;62.43;97480.81;4943579;28;20058;-69
2021/10/29 15:51:22;;;;;;;5.70;1.00;;;;;;;14.29;62.39;97476.34;4971608;28;20088;-65
2021/10/29 15:53:48;;;;;;;3.25;1.13;;;;;;;14.27;63.06;97486.69;4959416;28;20382;-66
2021/10/29 15:56:26;;;;;;;5.75;0.70;;;;;;;14.24;63.20;97495.47;4949314;28;20121;-65
2021/10/29 15:59:21;;;;;;;1.92;0.70;;;;;;;14.04;63.87;97500.41;4971786;28;20148;-66
2021/10/29 16:01:49;;;;;;;3.00;0.77;;;;;;;14.16;63.05;97500.56;4968691;28;20108;-66
2021/10/29 16:17:57;;;;;;;7.13;0.82;;;;;;;13.76;63.13;97509.69;4972713;28;20034;-67
2021/10/29 16:20:24;;;;;;;5.68;1.13;;;;;;;13.70;63.26;97513.66;4975893;28;20053;-67
2021/10/29 16:22:51;;;;;;;3.28;0.80;;;;;;;13.60;63.90;97516.69;4973975;28;20507;-67
2021/10/29 16:25:24;;;;;;;20.67;3.72;;;;;;;13.72;63.41;97518.72;4976081;28;20113;-67
2021/10/29 16:27:57;;;;;;;24.48;4.57;;;;;;;13.76;63.64;97520.50;4976358;28;20038;-66
2021/10/29 16:30:26;;;;;;;11.18;1.30;;;;;;;13.58;64.09;97521.59;4977736;28;20061;-67
2021/10/29 16:35:20;;;;;;;7.22;1.30;;;;;;;13.60;63.73;97535.59;4973674;28;20039;-66